Time;durP1;ratioP1;P1;durP2;ratioP2;P2;SDS_P1;SDS_P2;PMS_P1;PMS_P2;Temp;Humidity;BMP_temperature;BMP_pressure;BME280_temperature;BME280_humidity;BME280_pressure;Samples;Min_cycle;Max_cycle;Signal;HPM_P1;HPM_P2
2020/12/04 00:00:59;;;;;;;;;;;;;;;-0.35;70.38;93193.63;5032998;28;19971;-72
2020/12/04 00:03:24;;;;;;;;;;;;;;;-0.26;69.64;93191.91;5031968;28;20258;-74
2020/12/04 00:05:49;;;;;;;;;;;;;;;-0.17;69.50;93194.66;5015098;28;19917;-72
2020/12/04 00:08:14;;;;;;;;;;;;;;;-0.08;69.60;93185.91;5032565;28;19971;-72
2020/12/04 00:10:39;;;;;;;;;;;;;;;-0.02;69.29;93184.75;5032833;28;19963;-73
2020/12/04 00:13:05;;;;;;;;;;;;;;;0.13;68.89;93188.19;5032061;28;19917;-73
2020/12/04 00:15:31;;;;;;;;;;;;;;;0.06;68.50;93199.03;5032686;28;19940;-73
2020/12/04 00:17:56;;;;;;;;;;;;;;;-0.12;68.45;93189.38;5032496;28;19924;-73
2020/12/04 00:20:21;;;;;;;;;;;;;;;-0.05;68.89;93185.34;5014598;28;20004;-74
2020/12/04 00:22:47;;;;;;;;;;;;;;;0.11;68.95;93185.09;5032587;28;19921;-73
2020/12/04 00:25:12;;;;;;;;;;;;;;;0.20;68.72;93186.75;5032471;28;20032;-73
2020/12/04 00:27:37;;;;;;;;;;;;;;;0.29;68.56;93186.09;5032647;28;19921;-73
2020/12/04 00:30:03;;;;;;;;;;;;;;;0.37;68.33;93172.38;5014434;28;20000;-73
2020/12/04 00:32:28;;;;;;;;;;;;;;;0.42;68.33;93182.75;5013980;28;20016;-74
2020/12/04 00:34:53;;;;;;;;;;;;;;;0.49;67.62;93170.84;5032368;28;20014;-73
2020/12/04 00:37:18;;;;;;;;;;;;;;;0.56;67.73;93165.22;5032458;28;20002;-73
2020/12/04 00:39:44;;;;;;;;;;;;;;;0.63;67.21;93164.84;5014426;28;20003;-74
2020/12/04 00:42:09;;;;;;;;;;;;;;;0.68;67.07;93162.91;5014462;28;19921;-74
2020/12/04 00:44:34;;;;;;;;;;;;;;;0.70;66.84;93150.31;5014597;28;20287;-71
2020/12/04 00:47:00;;;;;;;;;;;;;;;0.75;66.60;93144.22;5032421;28;19917;-73
2020/12/04 00:49:26;;;;;;;;;;;;;;;0.73;66.09;93146.34;5031988;28;19917;-73
2020/12/04 00:51:51;;;;;;;;;;;;;;;0.70;66.41;93136.47;5032089;28;19923;-74
2020/12/04 00:54:17;;;;;;;;;;;;;;;0.68;66.25;93133.38;5032205;28;19932;-73
2020/12/04 00:56:42;;;;;;;;;;;;;;;0.70;66.53;93133.84;5032249;28;20387;-72
2020/12/04 00:59:07;;;;;;;;;;;;;;;0.71;66.41;93130.16;5031980;28;20527;-74
2020/12/04 01:01:32;;;;;;;;;;;;;;;0.72;66.56;93123.88;5031718;28;19925;-74
2020/12/04 01:03:58;;;;;;;;;;;;;;;0.63;66.42;93115.91;5014102;28;20383;-72
2020/12/04 01:06:23;;;;;;;;;;;;;;;0.58;66.27;93110.00;5031994;28;19917;-75
2020/12/04 01:08:48;;;;;;;;;;;;;;;0.56;66.28;93104.28;5014183;28;20298;-72
2020/12/04 01:11:13;;;;;;;;;;;;;;;0.49;66.63;93110.69;5032113;28;20006;-72
2020/12/04 01:13:39;;;;;;;;;;;;;;;0.42;66.75;93110.28;5032212;28;19917;-72
2020/12/04 01:16:07;;;;;;;;;;;;;;;0.44;66.81;93110.78;5031963;28;20375;-72
2020/12/04 01:18:32;;;;;;;;;;;;;;;0.47;67.08;93109.44;5013935;28;20007;-73
2020/12/04 01:20:57;;;;;;;;;;;;;;;0.48;66.62;93103.13;5031912;28;19956;-73
2020/12/04 01:23:23;;;;;;;;;;;;;;;0.47;66.59;93119.91;5031901;28;19917;-74
2020/12/04 01:25:48;;;;;;;;;;;;;;;0.46;67.03;93119.13;5035952;28;19917;-73
2020/12/04 01:28:13;;;;;;;;;;;;;;;0.43;67.13;93114.47;5017786;28;19920;-73
2020/12/04 01:30:38;;;;;;;;;;;;;;;0.45;66.82;93107.09;5018067;28;19955;-73
2020/12/04 01:33:04;;;;;;;;;;;;;;;0.45;67.13;93101.09;5017253;28;19961;-73
2020/12/04 01:35:29;;;;;;;;;;;;;;;0.46;66.83;93106.03;5035822;28;19917;-74
2020/12/04 01:37:54;;;;;;;;;;;;;;;0.44;66.91;93100.31;5018163;28;19917;-72
2020/12/04 01:40:20;;;;;;;;;;;;;;;0.50;66.97;93091.28;5035415;28;19919;-72
2020/12/04 01:42:45;;;;;;;;;;;;;;;0.35;67.04;93101.28;5035305;28;19940;-73
2020/12/04 01:45:10;;;;;;;;;;;;;;;0.40;66.99;93094.09;5035598;28;19917;-73
2020/12/04 01:47:36;;;;;;;;;;;;;;;0.36;66.70;93093.16;5035491;28;20397;-73
2020/12/04 01:50:01;;;;;;;;;;;;;;;0.32;67.06;93086.19;5035235;28;19992;-73
2020/12/04 01:52:26;;;;;;;;;;;;;;;0.25;67.39;93089.94;5035112;28;20390;-73
2020/12/04 01:54:52;;;;;;;;;;;;;;;0.24;67.07;93087.59;5035357;28;20428;-72
2020/12/04 01:57:20;;;;;;;;;;;;;;;0.22;67.28;93087.13;5035224;28;19928;-72
2020/12/04 01:59:45;;;;;;;;;;;;;;;0.20;67.37;93079.56;5035115;28;20314;-73
2020/12/04 02:02:17;;;;;;;;;;;;;;;0.15;67.44;93071.03;5034623;28;19921;-73
2020/12/04 02:04:43;;;;;;;;;;;;;;;0.11;67.59;93067.47;5035341;28;19991;-73
2020/12/04 02:07:13;;;;;;;;;;;;;;;0.03;67.85;93065.50;5035143;28;19917;-73
2020/12/04 02:09:41;;;;;;;;;;;;;;;-0.10;67.97;93067.81;5035093;28;19921;-73
2020/12/04 02:12:07;;;;;;;;;;;;;;;-0.13;68.17;93071.00;5034859;28;19917;-72
2020/12/04 02:14:33;;;;;;;;;;;;;;;-0.18;68.09;93052.81;5035004;28;19975;-73
2020/12/04 02:17:03;;;;;;;;;;;;;;;-0.31;68.55;93041.28;5034934;28;19921;-71
2020/12/04 02:19:28;;;;;;;;;;;;;;;-0.37;68.54;93039.78;5034862;28;19992;-72
2020/12/04 02:21:53;;;;;;;;;;;;;;;-0.39;68.64;93036.69;5034841;28;20406;-72
2020/12/04 02:24:24;;;;;;;;;;;;;;;-0.42;69.13;93044.31;5034773;28;20337;-71
2020/12/04 02:26:49;;;;;;;;;;;;;;;-0.45;69.17;93042.31;5034798;28;19921;-71
2020/12/04 02:29:14;;;;;;;;;;;;;;;-0.49;69.26;93036.88;5034482;28;19917;-72
2020/12/04 02:31:39;;;;;;;;;;;;;;;-0.52;69.42;93035.59;5034267;28;19925;-71
2020/12/04 02:34:05;;;;;;;;;;;;;;;-0.61;69.31;93026.88;5034408;28;19913;-72
2020/12/04 02:36:30;;;;;;;;;;;;;;;-0.60;69.48;93025.03;5034508;28;19932;-72
2020/12/04 02:38:55;;;;;;;;;;;;;;;-0.63;69.49;93021.16;5034321;28;19924;-71
2020/12/04 02:41:20;;;;;;;;;;;;;;;-0.67;69.98;93019.38;5034329;28;20361;-72
2020/12/04 02:43:46;;;;;;;;;;;;;;;-0.64;69.51;93016.22;5034562;28;19964;-72
2020/12/04 02:46:11;;;;;;;;;;;;;;;-0.62;70.25;93011.47;5034449;28;20440;-72
2020/12/04 02:48:36;;;;;;;;;;;;;;;-0.61;70.18;93000.75;5034169;28;19920;-72
2020/12/04 02:51:02;;;;;;;;;;;;;;;-0.66;69.91;92995.63;5034217;28;19971;-72
2020/12/04 02:53:27;;;;;;;;;;;;;;;-0.59;70.01;92993.41;5034087;28;19925;-73
2020/12/04 02:55:53;;;;;;;;;;;;;;;-0.59;70.20;92993.41;5034328;28;20374;-72
2020/12/04 02:58:18;;;;;;;;;;;;;;;-0.50;70.29;92990.16;5016209;28;19924;-72
2020/12/04 03:00:43;;;;;;;;;;;;;;;-0.40;69.57;92990.75;5034123;28;19917;-72
2020/12/04 03:03:09;;;;;;;;;;;;;;;-0.35;69.57;92984.66;5033335;28;19921;-72
2020/12/04 03:05:35;;;;;;;;;;;;;;;-0.34;69.22;92997.44;5016345;28;20346;-73
2020/12/04 03:08:01;;;;;;;;;;;;;;;-0.36;69.90;92991.72;5033983;28;20070;-73
2020/12/04 03:10:26;;;;;;;;;;;;;;;-0.32;69.41;92989.28;5033659;28;20310;-72
2020/12/04 03:12:52;;;;;;;;;;;;;;;-0.31;69.44;92978.59;5033728;28;19917;-72
2020/12/04 03:15:17;;;;;;;;;;;;;;;-0.24;68.99;92983.41;5015997;28;19921;-72
2020/12/04 03:17:42;;;;;;;;;;;;;;;-0.18;69.16;92971.03;5033943;28;19918;-72
2020/12/04 03:20:07;;;;;;;;;;;;;;;-0.17;68.80;92975.97;5033589;28;19921;-73
2020/12/04 03:22:33;;;;;;;;;;;;;;;-0.14;68.99;92979.84;5015872;28;20334;-73
2020/12/04 03:24:58;;;;;;;;;;;;;;;-0.10;68.68;92968.53;5033678;28;19956;-72
2020/12/04 03:27:23;;;;;;;;;;;;;;;-0.16;68.44;92967.06;5033702;28;19917;-72
2020/12/04 03:29:48;;;;;;;;;;;;;;;-0.05;68.47;92971.03;5033654;28;20003;-72
2020/12/04 03:32:14;;;;;;;;;;;;;;;0.02;68.52;92967.25;5032960;28;19940;-72
2020/12/04 03:34:40;;;;;;;;;;;;;;;0.07;68.26;92965.31;5031815;28;19971;-73
2020/12/04 03:37:05;;;;;;;;;;;;;;;0.10;68.01;92956.09;5032616;28;19924;-73
2020/12/04 03:39:30;;;;;;;;;;;;;;;0.14;68.02;92968.31;5033270;28;20003;-72
2020/12/04 03:41:55;;;;;;;;;;;;;;;0.15;67.79;92962.00;5015577;28;19978;-72
2020/12/04 03:44:21;;;;;;;;;;;;;;;0.16;67.76;92947.91;5033204;28;19917;-73
2020/12/04 03:46:47;;;;;;;;;;;;;;;0.16;67.35;92936.66;5033182;28;20397;-73
2020/12/04 03:49:13;;;;;;;;;;;;;;;0.19;67.49;92934.22;5033018;28;19913;-72
2020/12/04 03:51:39;;;;;;;;;;;;;;;0.24;67.43;92933.34;5033083;28;19918;-71
2020/12/04 03:54:04;;;;;;;;;;;;;;;0.23;67.46;92935.19;5033519;28;19917;-72
2020/12/04 03:56:29;;;;;;;;;;;;;;;0.28;67.26;92933.53;5033052;28;19999;-72
2020/12/04 03:58:55;;;;;;;;;;;;;;;0.34;67.40;92935.75;5032769;28;19917;-73
2020/12/04 04:01:20;;;;;;;;;;;;;;;0.38;66.95;92936.72;5032651;28;20404;-72
2020/12/04 04:03:45;;;;;;;;;;;;;;;0.43;66.70;92926.16;5032516;28;19924;-72
2020/12/04 04:06:10;;;;;;;;;;;;;;;0.52;66.66;92926.22;5033073;28;19985;-72
2020/12/04 04:08:36;;;;;;;;;;;;;;;0.59;66.27;92928.44;5015023;28;19964;-72
2020/12/04 04:11:01;;;;;;;;;;;;;;;0.62;66.20;92944.31;5032709;28;19924;-72
2020/12/04 04:13:26;;;;;;;;;;;;;;;0.69;65.89;92933.44;5032504;28;19921;-73
2020/12/04 04:15:51;;;;;;;;;;;;;;;0.77;65.77;92936.13;5014833;28;20477;-72
2020/12/04 04:18:16;;;;;;;;;;;;;;;0.78;65.89;92919.34;5032364;28;19923;-72
2020/12/04 04:20:42;;;;;;;;;;;;;;;0.79;65.68;92922.75;5032758;28;19982;-72
2020/12/04 04:23:07;;;;;;;;;;;;;;;0.77;65.56;92909.97;5032162;28;19932;-73
2020/12/04 04:25:33;;;;;;;;;;;;;;;0.79;65.46;92917.50;5014443;28;20112;-72
2020/12/04 04:27:59;;;;;;;;;;;;;;;0.77;65.25;92922.28;5032375;28;20356;-72
2020/12/04 04:30:24;;;;;;;;;;;;;;;0.76;65.29;92915.47;5032560;28;19924;-72
2020/12/04 04:32:49;;;;;;;;;;;;;;;0.78;65.43;92914.13;5031994;28;19917;-72
2020/12/04 04:35:14;;;;;;;;;;;;;;;0.76;65.51;92913.63;5032397;28;19957;-72
2020/12/04 04:37:41;;;;;;;;;;;;;;;0.79;65.50;92914.91;5032445;28;20012;-72
2020/12/04 04:40:06;;;;;;;;;;;;;;;0.83;65.08;92913.25;5032014;28;19917;-73
2020/12/04 04:42:32;;;;;;;;;;;;;;;0.87;65.28;92919.44;5014502;28;19917;-72
2020/12/04 04:44:58;;;;;;;;;;;;;;;0.91;65.15;92912.50;5032202;28;19966;-72
2020/12/04 04:47:28;;;;;;;;;;;;;;;0.97;64.94;92918.41;5032331;28;19917;-72
2020/12/04 04:49:53;;;;;;;;;;;;;;;1.03;64.85;92922.47;5014079;28;19940;-72
2020/12/04 04:52:19;;;;;;;;;;;;;;;1.05;64.73;92912.44;5031926;28;19983;-72
2020/12/04 04:54:47;;;;;;;;;;;;;;;1.08;64.48;92911.09;5032057;28;19918;-72
2020/12/04 04:57:13;;;;;;;;;;;;;;;1.12;64.37;92907.56;5031974;28;20398;-72
2020/12/04 04:59:41;;;;;;;;;;;;;;;1.13;64.47;92901.28;5031214;28;19917;-70
2020/12/04 05:02:11;;;;;;;;;;;;;;;1.13;64.23;92905.75;5015592;28;19928;-67
2020/12/04 05:05:02;;;;;;;;;;;;;;;1.07;64.23;92894.59;5032758;28;19917;-73
2020/12/04 05:07:32;;;;;;;;;;;;;;;1.06;64.40;92906.13;5012056;28;19917;-78
2020/12/04 05:10:10;;;;;;;;;;;;;;;1.10;64.59;92906.31;5014093;28;19913;-69
2020/12/04 05:12:36;;;;;;;;;;;;;;;1.08;64.57;92895.38;5032024;28;20395;-78
2020/12/04 05:15:20;;;;;;;;;;;;;;;1.07;64.24;92902.44;5032355;28;19945;-70
2020/12/04 05:18:15;;;;;;;;;;;;;;;1.01;64.57;92901.78;5032522;28;19921;-76
2020/12/04 05:20:41;;;;;;;;;;;;;;;0.95;64.57;92903.00;5001956;28;19924;-76
2020/12/04 05:23:07;;;;;;;;;;;;;;;0.88;65.00;92907.88;5014238;28;20338;-72
2020/12/04 05:25:40;;;;;;;;;;;;;;;0.89;64.95;92909.44;5032146;28;20053;-67
2020/12/04 05:28:18;;;;;;;;;;;;;;;0.82;65.36;92909.09;5032248;28;19917;-79
2020/12/04 05:30:48;;;;;;;;;;;;;;;0.77;65.16;92912.59;5032747;28;19922;-80
2020/12/04 05:33:13;;;;;;;;;;;;;;;0.75;65.51;92912.09;5032824;28;19940;-79
2020/12/04 05:35:39;;;;;;;;;;;;;;;0.71;65.59;92905.91;5033366;28;20350;-79
2020/12/04 05:38:06;;;;;;;;;;;;;;;0.76;65.61;92912.84;5032824;28;19970;-79
2020/12/04 05:40:32;;;;;;;;;;;;;;;0.83;65.90;92917.69;5033208;28;19917;-81
2020/12/04 05:42:57;;;;;;;;;;;;;;;0.97;65.88;92911.34;5015999;28;19921;-80
2020/12/04 05:45:23;;;;;;;;;;;;;;;1.10;65.05;92911.56;5032088;28;19917;-81
2020/12/04 05:47:48;;;;;;;;;;;;;;;1.19;64.94;92907.16;5033189;28;19940;-77
2020/12/04 05:50:14;;;;;;;;;;;;;;;1.30;64.88;92901.34;5032531;28;19944;-80
2020/12/04 05:52:40;;;;;;;;;;;;;;;1.40;64.42;92902.94;5015115;28;20354;-79
2020/12/04 05:55:06;;;;;;;;;;;;;;;1.48;64.16;92910.06;5032821;28;19917;-79
2020/12/04 05:57:52;;;;;;;;;;;;;;;1.46;63.78;92906.22;5032436;28;19918;-79
2020/12/04 06:00:17;;;;;;;;;;;;;;;1.55;63.96;92915.66;5032086;28;19917;-79
2020/12/04 06:02:42;;;;;;;;;;;;;;;1.59;63.78;92909.78;5032483;28;20264;-79
2020/12/04 06:05:11;;;;;;;;;;;;;;;1.49;63.87;92910.84;5032673;28;19921;-79
2020/12/04 06:07:37;;;;;;;;;;;;;;;1.58;63.63;92921.34;5015210;28;19966;-79
2020/12/04 06:10:02;;;;;;;;;;;;;;;1.71;63.58;92929.13;5033907;28;19980;-79
2020/12/04 06:12:28;;;;;;;;;;;;;;;1.74;63.57;92928.53;5036037;28;20018;-79
2020/12/04 06:14:53;;;;;;;;;;;;;;;1.70;63.27;92929.44;5036154;28;19917;-79
2020/12/04 06:17:18;;;;;;;;;;;;;;;1.74;63.48;92925.13;5035901;28;19917;-79
2020/12/04 06:19:44;;;;;;;;;;;;;;;1.75;63.52;92926.69;5035534;28;20294;-79
2020/12/04 06:22:10;;;;;;;;;;;;;;;1.80;63.25;92931.78;5035712;28;19979;-79
2020/12/04 06:24:54;;;;;;;;;;;;;;;1.82;63.54;92930.41;5035755;28;19917;-80
2020/12/04 06:27:34;;;;;;;;;;;;;;;1.77;63.25;92925.28;5035899;28;20015;-80
2020/12/04 06:30:00;;;;;;;;;;;;;;;1.79;63.31;92927.59;5018077;28;19944;-79
2020/12/04 06:32:45;;;;;;;;;;;;;;;1.77;63.18;92909.56;5035321;28;19921;-81
2020/12/04 06:35:11;;;;;;;;;;;;;;;1.80;63.37;92929.19;5035778;28;19917;-82
2020/12/04 06:37:40;;;;;;;;;;;;;;;1.69;63.51;92927.88;5035590;28;20446;-80
2020/12/04 06:40:26;;;;;;;;;;;;;;;1.63;63.37;92926.47;5035521;28;20343;-80
2020/12/04 06:42:51;;;;;;;;;;;;;;;1.56;63.71;92926.91;5035347;28;19972;-78
2020/12/04 06:45:17;;;;;;;;;;;;;;;1.46;64.01;92919.31;5035230;28;19972;-78
2020/12/04 06:47:42;;;;;;;;;;;;;;;1.42;64.39;92915.72;5035201;28;19940;-81
2020/12/04 06:50:07;;;;;;;;;;;;;;;1.34;64.68;92912.00;5035235;28;19995;-80
2020/12/04 06:52:32;;;;;;;;;;;;;;;1.40;64.68;92910.81;5035314;28;19928;-81
2020/12/04 06:54:58;;;;;;;;;;;;;;;1.25;64.79;92917.19;5017757;28;19917;-83
2020/12/04 06:57:23;;;;;;;;;;;;;;;1.46;65.28;92914.06;5033539;28;19923;-78
2020/12/04 06:59:49;;;;;;;;;;;;;;;1.60;64.82;92903.50;5034670;28;19917;-77
2020/12/04 07:02:15;;;;;;;;;;;;;;;1.74;64.14;92912.00;5016917;28;19999;-78
2020/12/04 07:04:44;;;;;;;;;;;;;;;1.83;64.13;92916.22;5034758;28;20458;-79
2020/12/04 07:07:13;;;;;;;;;;;;;;;1.89;63.97;92922.09;5017191;28;19917;-80
2020/12/04 07:09:39;;;;;;;;;;;;;;;1.89;63.91;92918.69;5035142;28;19921;-81
2020/12/04 07:12:05;;;;;;;;;;;;;;;1.95;63.51;92923.53;5034803;28;20004;-80
2020/12/04 07:14:30;;;;;;;;;;;;;;;2.02;64.16;92920.44;5034911;28;19967;-80
2020/12/04 07:16:56;;;;;;;;;;;;;;;2.12;64.00;92920.16;5035053;28;20074;-81
2020/12/04 07:19:22;;;;;;;;;;;;;;;2.23;63.22;92916.19;5016251;28;20329;-78
2020/12/04 07:21:48;;;;;;;;;;;;;;;2.30;62.80;92902.59;5016541;28;19917;-72
2020/12/04 07:24:13;;;;;;;;;;;;;;;2.34;62.62;92916.66;5021819;28;20290;-82
2020/12/04 07:26:42;;;;;;;;;;;;;;;2.44;62.86;92913.75;5023494;28;19917;-71
2020/12/04 07:29:09;;;;;;;;;;;;;;;2.44;61.98;92910.34;5033497;28;19917;-75
2020/12/04 07:31:34;;;;;;;;;;;;;;;2.53;62.60;92909.28;5015453;28;19986;-73
2020/12/04 07:34:00;;;;;;;;;;;;;;;2.64;62.58;92914.22;5033660;28;19917;-79
2020/12/04 07:36:26;;;;;;;;;;;;;;;2.79;61.89;92908.50;5016073;28;19971;-81
2020/12/04 07:38:56;;;;;;;;;;;;;;;2.93;61.41;92900.47;5033683;28;20337;-71
2020/12/04 07:41:22;;;;;;;;;;;;;;;3.02;60.65;92903.84;5033408;28;19917;-74
2020/12/04 07:43:48;;;;;;;;;;;;;;;3.21;61.06;92900.91;5033428;28;19921;-76
2020/12/04 07:46:17;;;;;;;;;;;;;;;3.32;60.46;92897.63;5015634;28;19963;-75
2020/12/04 07:48:57;;;;;;;;;;;;;;;3.38;59.95;92900.88;5033197;28;19940;-74
2020/12/04 07:51:22;;;;;;;;;;;;;;;3.34;60.08;92905.97;5016001;28;19979;-79
2020/12/04 07:53:47;;;;;;;;;;;;;;;3.43;60.34;92908.59;5016290;28;20013;-77
2020/12/04 07:56:13;;;;;;;;;;;;;;;3.46;60.04;92907.94;5032338;28;19917;-74
2020/12/04 07:58:39;;;;;;;;;;;;;;;3.52;60.11;92911.94;5016121;28;19925;-79
2020/12/04 08:01:04;;;;;;;;;;;;;;;3.58;59.67;92908.09;5034090;28;19963;-79
2020/12/04 08:03:29;;;;;;;;;;;;;;;3.66;59.79;92906.50;5033822;28;19960;-79
2020/12/04 08:06:08;;;;;;;;;;;;;;;3.74;59.48;92894.44;5034084;28;20389;-79
2020/12/04 08:08:33;;;;;;;;;;;;;;;3.80;59.15;92885.28;5015814;28;19917;-79
2020/12/04 08:11:08;;;;;;;;;;;;;;;3.88;58.93;92889.69;5033623;28;19924;-79
2020/12/04 08:13:36;;;;;;;;;;;;;;;4.01;58.76;92903.75;5015885;28;19917;-78
2020/12/04 08:16:01;;;;;;;;;;;;;;;4.11;58.57;92901.50;5033750;28;19983;-80
2020/12/04 08:18:27;;;;;;;;;;;;;;;4.21;58.03;92902.25;5033329;28;20000;-80
2020/12/04 08:21:02;;;;;;;;;;;;;;;4.30;57.80;92900.31;5033696;28;20373;-81
2020/12/04 08:23:27;;;;;;;;;;;;;;;4.41;57.13;92885.72;5033410;28;20309;-80
2020/12/04 08:25:52;;;;;;;;;;;;;;;4.54;57.21;92892.56;5033652;28;19916;-79
2020/12/04 08:28:18;;;;;;;;;;;;;;;4.62;56.64;92899.66;5033256;28;19925;-79
2020/12/04 08:30:43;;;;;;;;;;;;;;;4.63;56.20;92889.91;5033457;28;19917;-82
2020/12/04 08:33:09;;;;;;;;;;;;;;;4.72;56.14;92903.78;5032858;28;19960;-82
2020/12/04 08:35:42;;;;;;;;;;;;;;;4.82;55.83;92913.16;5033658;28;19917;-80
2020/12/04 08:38:14;;;;;;;;;;;;;;;4.91;55.84;92916.47;5033422;28;19921;-79
2020/12/04 08:40:47;;;;;;;;;;;;;;;4.99;55.48;92914.88;5029492;28;19917;-79
2020/12/04 08:43:12;;;;;;;;;;;;;;;5.08;55.28;92921.63;5032935;28;19949;-81
2020/12/04 08:45:38;;;;;;;;;;;;;;;5.16;54.63;92917.34;5032823;28;19956;-78
2020/12/04 08:48:11;;;;;;;;;;;;;;;5.24;54.98;92915.75;5033099;28;19944;-80
2020/12/04 08:50:45;;;;;;;;;;;;;;;5.33;54.54;92913.81;5032952;28;20007;-78
2020/12/04 08:53:12;;;;;;;;;;;;;;;5.44;54.15;92909.66;5015211;28;19924;-79
2020/12/04 08:55:37;;;;;;;;;;;;;;;5.53;54.45;92909.56;5015628;28;19917;-78
2020/12/04 08:58:03;;;;;;;;;;;;;;;5.59;54.38;92906.41;5032802;28;19963;-76
2020/12/04 09:00:32;;;;;;;;;;;;;;;5.65;53.94;92918.28;5030928;28;19928;-78
2020/12/04 09:02:58;;;;;;;;;;;;;;;5.55;53.60;92921.31;5014635;28;20504;-79
2020/12/04 09:05:23;;;;;;;;;;;;;;;5.57;54.01;92916.50;5014936;28;19917;-79
2020/12/04 09:07:48;;;;;;;;;;;;;;;5.49;54.21;92914.72;5014885;28;19924;-78
2020/12/04 09:10:15;;;;;;;;;;;;;;;5.51;53.92;92917.03;5014494;28;20375;-77
2020/12/04 09:12:41;;;;;;;;;;;;;;;5.48;54.34;92906.03;5014295;28;19924;-70
2020/12/04 09:15:07;;;;;;;;;;;;;;;5.43;54.17;92903.63;5032270;28;20282;-69
2020/12/04 09:17:33;;;;;;;;;;;;;;;5.44;54.11;92904.38;5031804;28;19928;-72
2020/12/04 09:19:58;;;;;;;;;;;;;;;5.50;54.27;92910.22;5014263;28;19921;-78
2020/12/04 09:22:24;;;;;;;;;;;;;;;5.55;54.38;92908.16;5032504;28;19917;-77
2020/12/04 09:24:49;;;;;;;;;;;;;;;5.63;54.14;92909.94;5032437;28;19924;-77
2020/12/04 09:27:15;;;;;;;;;;;;;;;5.73;53.72;92904.22;5032083;28;19921;-76
2020/12/04 09:29:40;;;;;;;;;;;;;;;5.80;54.35;92897.63;5032181;28;20001;-75
2020/12/04 09:32:10;;;;;;;;;;;;;;;5.90;53.42;92905.13;5013787;28;19944;-81
2020/12/04 09:34:35;;;;;;;;;;;;;;;6.07;53.37;92893.63;5032188;28;19921;-79
2020/12/04 09:37:10;;;;;;;;;;;;;;;6.19;52.94;92883.84;5032848;28;19974;-80
2020/12/04 09:39:35;;;;;;;;;;;;;;;6.29;52.63;92879.19;5014970;28;20322;-80
2020/12/04 09:42:00;;;;;;;;;;;;;;;6.33;52.79;92872.16;5032591;28;19918;-79
2020/12/04 09:44:25;;;;;;;;;;;;;;;6.56;52.68;92865.31;5032863;28;19957;-77
2020/12/04 09:46:51;;;;;;;;;;;;;;;6.72;52.08;92863.50;5018936;28;19924;-80
2020/12/04 09:49:16;;;;;;;;;;;;;;;6.89;52.31;92866.97;5036537;28;19978;-84
2020/12/04 09:51:41;;;;;;;;;;;;;;;6.97;51.28;92869.47;5019089;28;19921;-83
2020/12/04 09:54:06;;;;;;;;;;;;;;;7.10;51.60;92856.97;5036113;28;19917;-86
2020/12/04 09:56:31;;;;;;;;;;;;;;;7.20;51.69;92850.44;5035699;28;19939;-74
2020/12/04 09:58:57;;;;;;;;;;;;;;;7.34;51.00;92850.03;5035347;28;20283;-77
2020/12/04 10:01:22;;;;;;;;;;;;;;;7.08;50.63;92784.41;5017176;28;20405;-74
2020/12/04 10:03:48;;;;;;;;;;;;;;;7.47;50.94;92825.84;5033991;28;20379;-75
2020/12/04 10:06:14;;;;;;;;;;;;;;;7.26;51.18;92833.97;5017631;28;19963;-76
2020/12/04 10:08:39;;;;;;;;;;;;;;;7.41;50.42;92827.16;5017434;28;19921;-75
2020/12/04 10:11:04;;;;;;;;;;;;;;;7.54;50.79;92830.53;5035334;28;19917;-75
2020/12/04 10:13:29;;;;;;;;;;;;;;;7.55;50.94;92832.81;5017424;28;20286;-78
2020/12/04 10:16:00;;;;;;;;;;;;;;;7.60;49.87;92834.44;5035437;28;20406;-77
2020/12/04 10:18:25;;;;;;;;;;;;;;;7.62;49.96;92824.28;5017437;28;19917;-76
2020/12/04 10:20:51;;;;;;;;;;;;;;;7.62;50.33;92820.88;5035520;28;20020;-78
2020/12/04 10:23:16;;;;;;;;;;;;;;;7.58;50.07;92823.44;5017629;28;20264;-78
2020/12/04 10:25:41;;;;;;;;;;;;;;;7.53;50.34;92813.88;5017453;28;19968;-78
2020/12/04 10:28:06;;;;;;;;;;;;;;;7.47;50.74;92817.09;5017791;28;19917;-77
2020/12/04 10:30:31;;;;;;;;;;;;;;;7.39;50.13;92810.13;5017220;28;19917;-76
2020/12/04 10:32:57;;;;;;;;;;;;;;;7.34;50.61;92802.44;5016784;28;19921;-77
2020/12/04 10:35:22;;;;;;;;;;;;;;;7.30;50.86;92797.81;5017383;28;19964;-76
2020/12/04 10:37:47;;;;;;;;;;;;;;;7.19;50.74;92798.66;5035048;28;19921;-78
2020/12/04 10:40:12;;;;;;;;;;;;;;;7.13;50.37;92794.72;5016930;28;20055;-78
2020/12/04 10:42:38;;;;;;;;;;;;;;;7.05;50.95;92788.47;5034787;28;19967;-77
2020/12/04 10:45:03;;;;;;;;;;;;;;;6.98;51.35;92783.03;5017056;28;19924;-77
2020/12/04 10:47:28;;;;;;;;;;;;;;;6.92;51.20;92781.75;5016959;28;20264;-78
2020/12/04 10:49:53;;;;;;;;;;;;;;;7.00;51.93;92786.09;5016949;28;19917;-78
2020/12/04 10:52:19;;;;;;;;;;;;;;;6.99;51.11;92780.03;5034319;28;19917;-77
2020/12/04 10:54:44;;;;;;;;;;;;;;;6.95;51.06;92781.03;5016882;28;19923;-77
2020/12/04 10:57:09;;;;;;;;;;;;;;;6.91;51.67;92775.69;5016778;28;20359;-77
2020/12/04 10:59:34;;;;;;;;;;;;;;;6.65;51.97;92762.91;5016633;28;19983;-77
2020/12/04 11:02:13;;;;;;;;;;;;;;;6.67;51.99;92759.94;5033796;28;19921;-78
2020/12/04 11:07:22;;;;;;;;;;;;;;;6.65;52.13;92756.84;5034702;28;19939;-76
2020/12/04 11:09:47;;;;;;;;;;;;;;;6.85;52.01;92757.75;5016391;28;19921;-76
2020/12/04 11:14:45;;;;;;;;;;;;;;;7.04;51.69;92761.28;5019290;28;19932;-62
2020/12/04 11:17:10;;;;;;;;;;;;;;;7.06;51.34;92755.66;5011352;28;19918;-62
2020/12/04 11:19:36;;;;;;;;;;;;;;;7.21;51.99;92762.06;5013595;28;20275;-61
2020/12/04 11:22:01;;;;;;;;;;;;;;;7.35;52.11;92756.38;5014044;28;20055;-62
2020/12/04 11:24:26;;;;;;;;;;;;;;;7.44;51.24;92762.25;5013765;28;20372;-63
2020/12/04 11:26:52;;;;;;;;;;;;;;;7.48;50.68;92739.31;4996008;28;19940;-62
2020/12/04 11:29:17;;;;;;;;;;;;;;;7.40;50.96;92735.72;4995458;28;20371;-62
2020/12/04 11:31:42;;;;;;;;;;;;;;;7.54;50.27;92730.75;5013087;28;19925;-62
2020/12/04 11:34:07;;;;;;;;;;;;;;;7.67;50.86;92736.72;5012115;28;20000;-62
2020/12/04 11:36:34;;;;;;;;;;;;;;;7.67;49.98;92757.09;5012330;28;20015;-62
2020/12/04 11:38:59;;;;;;;;;;;;;;;7.92;50.69;92731.22;4995613;28;19917;-63
2020/12/04 11:41:28;;;;;;;;;;;;;;;8.01;50.13;92719.31;5013167;28;19924;-62
2020/12/04 11:43:53;;;;;;;;;;;;;;;8.21;49.99;92714.03;5013336;28;19917;-63
2020/12/04 11:46:18;;;;;;;;;;;;;;;8.39;49.08;92711.78;4995752;28;19917;-63
2020/12/04 11:48:44;;;;;;;;;;;;;;;8.47;48.96;92710.81;5012903;28;19921;-63
2020/12/04 11:51:09;;;;;;;;;;;;;;;8.57;48.42;92720.84;5013138;28;20386;-62
2020/12/04 11:53:34;;;;;;;;;;;;;;;8.65;48.60;92711.13;5012779;28;19921;-62
2020/12/04 11:55:59;;;;;;;;;;;;;;;8.74;48.76;92711.69;5013025;28;20017;-63
2020/12/04 11:58:24;;;;;;;;;;;;;;;8.80;47.93;92711.06;5012584;28;19964;-63
2020/12/04 12:00:50;;;;;;;;;;;;;;;8.79;47.62;92720.09;4995573;28;19960;-61
2020/12/04 12:03:15;;;;;;;;;;;;;;;8.79;47.09;92706.84;5012018;28;20010;-62
2020/12/04 12:05:40;;;;;;;;;;;;;;;8.84;47.09;92703.91;5011522;28;19960;-62
2020/12/04 12:08:05;;;;;;;;;;;;;;;8.93;47.30;92700.28;5012239;28;19957;-64
2020/12/04 12:10:31;;;;;;;;;;;;;;;8.97;46.81;92703.78;5012709;28;19922;-62
2020/12/04 12:12:56;;;;;;;;;;;;;;;9.01;46.69;92694.75;4994973;28;20358;-63
2020/12/04 12:15:21;;;;;;;;;;;;;;;9.05;46.62;92684.19;5012684;28;20295;-63
2020/12/04 12:17:46;;;;;;;;;;;;;;;9.13;46.15;92693.06;5012755;28;20047;-63
2020/12/04 12:20:11;;;;;;;;;;;;;;;9.07;45.45;92684.63;4995005;28;19968;-63
2020/12/04 12:22:36;;;;;;;;;;;;;;;9.16;45.53;92682.47;5012490;28;19917;-63
2020/12/04 12:25:02;;;;;;;;;;;;;;;9.27;45.52;92683.44;5012615;28;20004;-62
2020/12/04 12:27:27;;;;;;;;;;;;;;;9.35;45.53;92692.25;5011223;28;19924;-62
2020/12/04 12:29:57;;;;;;;;;;;;;;;9.34;45.12;92693.38;5012606;28;19940;-62
2020/12/04 12:32:22;;;;;;;;;;;;;;;9.42;45.36;92681.78;4994125;28;19918;-63
2020/12/04 12:35:05;;;;;;;;;;;;;;;9.37;44.75;92690.03;4995025;28;19940;-62
2020/12/04 12:37:31;;;;;;;;;;;;;;;9.41;45.15;92692.72;5012415;28;19922;-62
2020/12/04 12:39:57;;;;;;;;;;;;;;;9.42;44.86;92687.09;5012024;28;19921;-62
2020/12/04 12:42:22;;;;;;;;;;;;;;;9.40;45.06;92689.31;5012180;28;19940;-62
2020/12/04 12:44:47;;;;;;;;;;;;;;;9.37;45.08;92687.38;4994830;28;19980;-63
2020/12/04 12:47:13;;;;;;;;;;;;;;;9.44;45.05;92690.13;5012360;28;20016;-62
2020/12/04 12:49:40;;;;;;;;;;;;;;;9.52;44.49;92696.31;5012044;28;20375;-63
2020/12/04 12:52:05;;;;;;;;;;;;;;;9.54;44.63;92678.91;5012049;28;20008;-63
2020/12/04 12:54:31;;;;;;;;;;;;;;;9.58;44.69;92676.31;5012201;28;20004;-63
2020/12/04 12:56:57;;;;;;;;;;;;;;;9.67;44.15;92671.50;5012243;28;20417;-62